sensor_id;sensor_type;location;lat;lon;timestamp;temperature;humidity
7117;DHT22;3600;48.568;7.870;2022-09-17T00:01:06;12.30;99.90
7117;DHT22;3600;48.568;7.870;2022-09-17T00:03:34;12.30;99.90
7117;DHT22;3600;48.568;7.870;2022-09-17T00:06:03;12.20;99.90
7117;DHT22;3600;48.568;7.870;2022-09-17T00:08:31;12.10;99.90
7117;DHT22;3600;48.568;7.870;2022-09-17T00:11:15;12.20;99.90
7117;DHT22;3600;48.568;7.870;2022-09-17T00:13:43;12.30;99.90
7117;DHT22;3600;48.568;7.870;2022-09-17T00:16:11;12.20;99.90
7117;DHT22;3600;48.568;7.870;2022-09-17T00:18:38;12.20;99.90
7117;DHT22;3600;48.568;7.870;2022-09-17T00:21:18;12.20;99.90
7117;DHT22;3600;48.568;7.870;2022-09-17T00:23:45;12.20;99.90
7117;DHT22;3600;48.568;7.870;2022-09-17T00:26:12;12.10;99.90
7117;DHT22;3600;48.568;7.870;2022-09-17T00:28:39;12.10;99.90
7117;DHT22;3600;48.568;7.870;2022-09-17T00:31:08;11.90;99.90
7117;DHT22;3600;48.568;7.870;2022-09-17T00:33:35;11.90;99.90
7117;DHT22;3600;48.568;7.870;2022-09-17T00:36:03;11.90;99.90
7117;DHT22;3600;48.568;7.870;2022-09-17T00:38:30;12.00;99.90
7117;DHT22;3600;48.568;7.870;2022-09-17T00:40:57;11.80;99.90
7117;DHT22;3600;48.568;7.870;2022-09-17T00:43:43;11.80;99.90
7117;DHT22;3600;48.568;7.870;2022-09-17T00:48:58;12.00;99.90
7117;DHT22;3600;48.568;7.870;2022-09-17T00:51:35;12.10;99.90
7117;DHT22;3600;48.568;7.870;2022-09-17T00:54:05;12.00;99.90
7117;DHT22;3600;48.568;7.870;2022-09-17T00:56:35;11.80;99.90
7117;DHT22;3600;48.568;7.870;2022-09-17T00:59:02;11.90;99.90
7117;DHT22;3600;48.568;7.870;2022-09-17T01:01:30;11.80;99.90
7117;DHT22;3600;48.568;7.870;2022-09-17T01:03:58;11.90;99.90
7117;DHT22;3600;48.568;7.870;2022-09-17T01:06:43;11.80;99.90
7117;DHT22;3600;48.568;7.870;2022-09-17T01:09:38;11.90;99.90
7117;DHT22;3600;48.568;7.870;2022-09-17T01:23:51;11.80;99.90
7117;DHT22;3600;48.568;7.870;2022-09-17T01:26:49;11.80;99.90
7117;DHT22;3600;48.568;7.870;2022-09-17T01:32:28;11.80;99.90
7117;DHT22;3600;48.568;7.870;2022-09-17T01:35:02;11.60;99.90
7117;DHT22;3600;48.568;7.870;2022-09-17T01:37:35;11.70;99.90
7117;DHT22;3600;48.568;7.870;2022-09-17T01:40:07;11.70;99.90
7117;DHT22;3600;48.568;7.870;2022-09-17T01:42:53;11.70;99.90
7117;DHT22;3600;48.568;7.870;2022-09-17T01:45:40;11.70;99.90
7117;DHT22;3600;48.568;7.870;2022-09-17T01:48:16;11.60;99.90
7117;DHT22;3600;48.568;7.870;2022-09-17T01:51:25;11.40;99.90
7117;DHT22;3600;48.568;7.870;2022-09-17T01:56:35;11.30;99.90
7117;DHT22;3600;48.568;7.870;2022-09-17T01:59:13;11.40;99.90
7117;DHT22;3600;48.568;7.870;2022-09-17T02:01:43;11.40;99.90
7117;DHT22;3600;48.568;7.870;2022-09-17T02:04:26;11.40;99.90
7117;DHT22;3600;48.568;7.870;2022-09-17T02:07:09;11.40;99.90
7117;DHT22;3600;48.568;7.870;2022-09-17T02:09:42;11.30;99.90
7117;DHT22;3600;48.568;7.870;2022-09-17T02:12:16;11.30;99.90
7117;DHT22;3600;48.568;7.870;2022-09-17T02:14:51;11.30;99.90
7117;DHT22;3600;48.568;7.870;2022-09-17T02:17:39;11.40;99.90
7117;DHT22;3600;48.568;7.870;2022-09-17T02:20:08;11.30;99.90
7117;DHT22;3600;48.568;7.870;2022-09-17T02:22:41;11.40;99.90
7117;DHT22;3600;48.568;7.870;2022-09-17T02:25:19;11.40;99.90
7117;DHT22;3600;48.568;7.870;2022-09-17T02:28:02;11.40;99.90
7117;DHT22;3600;48.568;7.870;2022-09-17T02:30:31;11.30;99.90
7117;DHT22;3600;48.568;7.870;2022-09-17T02:33:00;11.40;99.90
7117;DHT22;3600;48.568;7.870;2022-09-17T02:35:30;11.30;99.90
7117;DHT22;3600;48.568;7.870;2022-09-17T02:37:57;11.20;99.90
7117;DHT22;3600;48.568;7.870;2022-09-17T02:40:26;11.20;99.90
7117;DHT22;3600;48.568;7.870;2022-09-17T02:46:14;11.30;99.90
7117;DHT22;3600;48.568;7.870;2022-09-17T02:49:02;11.30;99.90
7117;DHT22;3600;48.568;7.870;2022-09-17T02:54:13;11.40;99.90
7117;DHT22;3600;48.568;7.870;2022-09-17T03:02:23;11.30;99.90
7117;DHT22;3600;48.568;7.870;2022-09-17T03:04:51;11.40;99.90
7117;DHT22;3600;48.568;7.870;2022-09-17T03:07:20;11.40;99.90
7117;DHT22;3600;48.568;7.870;2022-09-17T03:09:47;11.30;99.90
7117;DHT22;3600;48.568;7.870;2022-09-17T03:12:14;11.30;99.90
7117;DHT22;3600;48.568;7.870;2022-09-17T03:14:42;11.30;99.90
7117;DHT22;3600;48.568;7.870;2022-09-17T03:17:09;11.30;99.90
7117;DHT22;3600;48.568;7.870;2022-09-17T03:19:36;11.30;99.90
7117;DHT22;3600;48.568;7.870;2022-09-17T03:22:02;11.30;99.90
7117;DHT22;3600;48.568;7.870;2022-09-17T03:24:29;11.20;99.90
7117;DHT22;3600;48.568;7.870;2022-09-17T03:26:56;11.10;99.90
7117;DHT22;3600;48.568;7.870;2022-09-17T03:29:23;11.10;99.90
7117;DHT22;3600;48.568;7.870;2022-09-17T03:31:50;11.00;99.90
7117;DHT22;3600;48.568;7.870;2022-09-17T03:34:17;11.10;99.90
7117;DHT22;3600;48.568;7.870;2022-09-17T03:36:44;11.10;99.90
7117;DHT22;3600;48.568;7.870;2022-09-17T03:39:10;11.00;99.90
7117;DHT22;3600;48.568;7.870;2022-09-17T03:41:37;11.00;99.90
7117;DHT22;3600;48.568;7.870;2022-09-17T03:44:04;11.00;99.90
7117;DHT22;3600;48.568;7.870;2022-09-17T03:46:31;11.00;99.90
7117;DHT22;3600;48.568;7.870;2022-09-17T03:48:58;11.00;99.90
7117;DHT22;3600;48.568;7.870;2022-09-17T03:51:24;11.00;99.90
7117;DHT22;3600;48.568;7.870;2022-09-17T03:53:51;10.80;99.90
7117;DHT22;3600;48.568;7.870;2022-09-17T03:56:18;11.00;99.90
7117;DHT22;3600;48.568;7.870;2022-09-17T03:58:45;11.00;99.90
7117;DHT22;3600;48.568;7.870;2022-09-17T04:01:11;10.80;99.90
7117;DHT22;3600;48.568;7.870;2022-09-17T04:03:38;10.90;99.90
7117;DHT22;3600;48.568;7.870;2022-09-17T04:06:05;11.10;99.90
7117;DHT22;3600;48.568;7.870;2022-09-17T04:08:32;11.00;99.90
7117;DHT22;3600;48.568;7.870;2022-09-17T04:10:59;11.00;99.90
7117;DHT22;3600;48.568;7.870;2022-09-17T04:13:26;11.00;99.90
7117;DHT22;3600;48.568;7.870;2022-09-17T04:15:52;11.00;99.90
7117;DHT22;3600;48.568;7.870;2022-09-17T04:18:19;11.00;99.90
7117;DHT22;3600;48.568;7.870;2022-09-17T04:20:46;11.10;99.90
7117;DHT22;3600;48.568;7.870;2022-09-17T04:23:12;11.00;99.90
7117;DHT22;3600;48.568;7.870;2022-09-17T04:25:39;11.00;99.90
7117;DHT22;3600;48.568;7.870;2022-09-17T04:28:06;11.10;99.90
7117;DHT22;3600;48.568;7.870;2022-09-17T04:30:33;11.10;99.90
7117;DHT22;3600;48.568;7.870;2022-09-17T04:33:00;11.10;99.90
7117;DHT22;3600;48.568;7.870;2022-09-17T04:35:26;11.10;99.90
7117;DHT22;3600;48.568;7.870;2022-09-17T04:37:55;11.10;99.90
7117;DHT22;3600;48.568;7.870;2022-09-17T04:40:23;11.10;99.90
7117;DHT22;3600;48.568;7.870;2022-09-17T04:42:54;11.10;99.90
7117;DHT22;3600;48.568;7.870;2022-09-17T04:47:49;11.20;99.90
7117;DHT22;3600;48.568;7.870;2022-09-17T04:50:20;11.30;99.90
7117;DHT22;3600;48.568;7.870;2022-09-17T04:52:47;11.20;99.90
7117;DHT22;3600;48.568;7.870;2022-09-17T04:55:14;11.20;99.90
7117;DHT22;3600;48.568;7.870;2022-09-17T04:57:49;11.20;99.90
7117;DHT22;3600;48.568;7.870;2022-09-17T05:00:17;11.30;99.90
7117;DHT22;3600;48.568;7.870;2022-09-17T05:02:45;10.90;99.90
7117;DHT22;3600;48.568;7.870;2022-09-17T05:05:13;10.90;99.90
7117;DHT22;3600;48.568;7.870;2022-09-17T05:07:41;10.90;99.90
7117;DHT22;3600;48.568;7.870;2022-09-17T05:10:09;11.00;99.90
7117;DHT22;3600;48.568;7.870;2022-09-17T05:12:37;10.90;99.90
7117;DHT22;3600;48.568;7.870;2022-09-17T05:15:04;10.90;99.90
7117;DHT22;3600;48.568;7.870;2022-09-17T05:17:31;10.90;99.90
7117;DHT22;3600;48.568;7.870;2022-09-17T05:19:58;10.90;99.90
7117;DHT22;3600;48.568;7.870;2022-09-17T05:22:24;10.90;99.90
7117;DHT22;3600;48.568;7.870;2022-09-17T05:24:51;10.90;99.90
7117;DHT22;3600;48.568;7.870;2022-09-17T05:27:18;10.90;99.90
7117;DHT22;3600;48.568;7.870;2022-09-17T05:29:44;10.80;99.90
7117;DHT22;3600;48.568;7.870;2022-09-17T05:32:11;10.80;99.90
7117;DHT22;3600;48.568;7.870;2022-09-17T05:34:38;10.90;99.90
7117;DHT22;3600;48.568;7.870;2022-09-17T05:37:04;10.90;99.90
7117;DHT22;3600;48.568;7.870;2022-09-17T05:39:31;10.90;99.90
7117;DHT22;3600;48.568;7.870;2022-09-17T05:41:58;11.00;99.90
7117;DHT22;3600;48.568;7.870;2022-09-17T05:44:25;11.00;99.90
7117;DHT22;3600;48.568;7.870;2022-09-17T05:46:54;10.90;99.90
7117;DHT22;3600;48.568;7.870;2022-09-17T05:49:21;11.00;99.90
7117;DHT22;3600;48.568;7.870;2022-09-17T05:51:49;10.90;99.90
7117;DHT22;3600;48.568;7.870;2022-09-17T05:54:17;10.90;99.90
7117;DHT22;3600;48.568;7.870;2022-09-17T05:56:43;10.90;99.90
7117;DHT22;3600;48.568;7.870;2022-09-17T05:59:10;10.90;99.90
7117;DHT22;3600;48.568;7.870;2022-09-17T06:01:38;10.90;99.90
7117;DHT22;3600;48.568;7.870;2022-09-17T06:04:04;10.90;99.90
7117;DHT22;3600;48.568;7.870;2022-09-17T06:06:31;10.90;99.90
7117;DHT22;3600;48.568;7.870;2022-09-17T06:08:58;10.90;99.90
7117;DHT22;3600;48.568;7.870;2022-09-17T06:11:25;10.70;99.90
7117;DHT22;3600;48.568;7.870;2022-09-17T06:13:53;10.90;99.90
7117;DHT22;3600;48.568;7.870;2022-09-17T06:16:21;10.90;99.90
7117;DHT22;3600;48.568;7.870;2022-09-17T06:18:48;10.90;99.90
7117;DHT22;3600;48.568;7.870;2022-09-17T06:21:21;11.00;99.90
7117;DHT22;3600;48.568;7.870;2022-09-17T06:23:49;11.00;99.90
7117;DHT22;3600;48.568;7.870;2022-09-17T06:26:16;11.00;99.90
7117;DHT22;3600;48.568;7.870;2022-09-17T06:28:43;10.90;99.90
7117;DHT22;3600;48.568;7.870;2022-09-17T06:31:11;11.00;99.90
7117;DHT22;3600;48.568;7.870;2022-09-17T06:33:39;10.90;99.90
7117;DHT22;3600;48.568;7.870;2022-09-17T06:36:07;11.00;99.90
7117;DHT22;3600;48.568;7.870;2022-09-17T06:38:40;11.00;99.90
7117;DHT22;3600;48.568;7.870;2022-09-17T06:41:07;10.90;99.90
7117;DHT22;3600;48.568;7.870;2022-09-17T06:43:33;11.00;99.90
7117;DHT22;3600;48.568;7.870;2022-09-17T06:46:02;10.90;99.90
7117;DHT22;3600;48.568;7.870;2022-09-17T06:48:33;10.90;99.90
7117;DHT22;3600;48.568;7.870;2022-09-17T06:51:08;10.90;99.90
7117;DHT22;3600;48.568;7.870;2022-09-17T06:53:36;10.60;99.90
7117;DHT22;3600;48.568;7.870;2022-09-17T06:56:04;10.70;99.90
7117;DHT22;3600;48.568;7.870;2022-09-17T06:58:33;10.70;99.90
7117;DHT22;3600;48.568;7.870;2022-09-17T07:01:03;10.70;99.90
7117;DHT22;3600;48.568;7.870;2022-09-17T07:03:31;10.80;99.90
7117;DHT22;3600;48.568;7.870;2022-09-17T07:05:58;10.80;99.90
7117;DHT22;3600;48.568;7.870;2022-09-17T07:08:25;10.70;99.90
7117;DHT22;3600;48.568;7.870;2022-09-17T07:10:56;11.00;99.90
7117;DHT22;3600;48.568;7.870;2022-09-17T07:13:23;10.90;99.90
7117;DHT22;3600;48.568;7.870;2022-09-17T07:15:55;10.90;99.90
7117;DHT22;3600;48.568;7.870;2022-09-17T07:18:22;10.90;99.90
7117;DHT22;3600;48.568;7.870;2022-09-17T07:20:56;10.90;99.90
7117;DHT22;3600;48.568;7.870;2022-09-17T07:23:25;11.00;99.90
7117;DHT22;3600;48.568;7.870;2022-09-17T07:25:57;11.00;99.90
7117;DHT22;3600;48.568;7.870;2022-09-17T07:28:25;11.00;99.90
7117;DHT22;3600;48.568;7.870;2022-09-17T07:30:52;11.00;99.90
7117;DHT22;3600;48.568;7.870;2022-09-17T07:33:21;11.10;99.90
7117;DHT22;3600;48.568;7.870;2022-09-17T07:35:56;11.10;99.90
7117;DHT22;3600;48.568;7.870;2022-09-17T07:38:23;11.20;99.90
7117;DHT22;3600;48.568;7.870;2022-09-17T07:41:05;11.20;99.90
7117;DHT22;3600;48.568;7.870;2022-09-17T07:43:34;11.20;99.90
7117;DHT22;3600;48.568;7.870;2022-09-17T07:46:03;11.20;99.90
7117;DHT22;3600;48.568;7.870;2022-09-17T07:48:30;11.30;99.90
7117;DHT22;3600;48.568;7.870;2022-09-17T07:50:57;11.00;99.90
7117;DHT22;3600;48.568;7.870;2022-09-17T07:53:24;11.20;99.90
7117;DHT22;3600;48.568;7.870;2022-09-17T07:55:52;11.20;99.90
7117;DHT22;3600;48.568;7.870;2022-09-17T07:58:20;11.20;99.90
7117;DHT22;3600;48.568;7.870;2022-09-17T08:00:47;11.20;99.90
7117;DHT22;3600;48.568;7.870;2022-09-17T08:03:14;11.20;99.90
7117;DHT22;3600;48.568;7.870;2022-09-17T08:05:41;11.30;99.90
7117;DHT22;3600;48.568;7.870;2022-09-17T08:08:08;11.20;99.90
7117;DHT22;3600;48.568;7.870;2022-09-17T08:10:35;11.30;99.90
7117;DHT22;3600;48.568;7.870;2022-09-17T08:13:02;11.30;99.90
7117;DHT22;3600;48.568;7.870;2022-09-17T08:15:28;11.30;99.90
7117;DHT22;3600;48.568;7.870;2022-09-17T08:17:55;11.40;99.90
7117;DHT22;3600;48.568;7.870;2022-09-17T08:20:22;11.50;99.90
7117;DHT22;3600;48.568;7.870;2022-09-17T08:22:57;11.50;99.90
7117;DHT22;3600;48.568;7.870;2022-09-17T08:25:24;11.60;99.90
7117;DHT22;3600;48.568;7.870;2022-09-17T08:27:55;11.60;99.90
7117;DHT22;3600;48.568;7.870;2022-09-17T08:30:24;11.70;99.90
7117;DHT22;3600;48.568;7.870;2022-09-17T08:32:54;11.70;99.90
7117;DHT22;3600;48.568;7.870;2022-09-17T08:35:21;11.60;99.90
7117;DHT22;3600;48.568;7.870;2022-09-17T08:37:49;11.70;99.90
7117;DHT22;3600;48.568;7.870;2022-09-17T08:40:18;11.80;99.90
7117;DHT22;3600;48.568;7.870;2022-09-17T08:42:58;11.80;99.90
7117;DHT22;3600;48.568;7.870;2022-09-17T08:45:27;11.80;99.90
7117;DHT22;3600;48.568;7.870;2022-09-17T08:48:00;11.70;99.90
7117;DHT22;3600;48.568;7.870;2022-09-17T08:50:29;11.50;99.90
7117;DHT22;3600;48.568;7.870;2022-09-17T08:56:12;11.70;99.90
7117;DHT22;3600;48.568;7.870;2022-09-17T08:58:51;11.80;99.90
7117;DHT22;3600;48.568;7.870;2022-09-17T09:06:33;12.00;99.90
7117;DHT22;3600;48.568;7.870;2022-09-17T09:09:15;12.00;99.90
7117;DHT22;3600;48.568;7.870;2022-09-17T09:11:43;12.10;99.90
7117;DHT22;3600;48.568;7.870;2022-09-17T09:14:35;12.00;99.90
7117;DHT22;3600;48.568;7.870;2022-09-17T09:17:07;12.10;99.90
7117;DHT22;3600;48.568;7.870;2022-09-17T09:19:41;12.20;99.90
7117;DHT22;3600;48.568;7.870;2022-09-17T09:22:31;12.20;99.90
7117;DHT22;3600;48.568;7.870;2022-09-17T09:27:53;12.30;99.90
7117;DHT22;3600;48.568;7.870;2022-09-17T09:30:22;12.30;99.90
7117;DHT22;3600;48.568;7.870;2022-09-17T09:33:11;12.30;99.90
7117;DHT22;3600;48.568;7.870;2022-09-17T09:35:41;12.40;99.90
7117;DHT22;3600;48.568;7.870;2022-09-17T09:40:54;12.60;99.90
7117;DHT22;3600;48.568;7.870;2022-09-17T09:43:46;12.70;99.90
7117;DHT22;3600;48.568;7.870;2022-09-17T09:49:41;13.10;99.90
7117;DHT22;3600;48.568;7.870;2022-09-17T09:52:28;13.10;99.90
7117;DHT22;3600;48.568;7.870;2022-09-17T09:58:23;12.90;99.90
7117;DHT22;3600;48.568;7.870;2022-09-17T10:00:51;12.90;99.90
7117;DHT22;3600;48.568;7.870;2022-09-17T10:03:30;13.10;99.90
7117;DHT22;3600;48.568;7.870;2022-09-17T10:06:00;13.10;99.90
7117;DHT22;3600;48.568;7.870;2022-09-17T10:08:34;13.00;99.90
7117;DHT22;3600;48.568;7.870;2022-09-17T10:13:39;13.10;99.90
7117;DHT22;3600;48.568;7.870;2022-09-17T10:16:16;13.10;99.90
7117;DHT22;3600;48.568;7.870;2022-09-17T10:18:48;13.20;99.90
7117;DHT22;3600;48.568;7.870;2022-09-17T10:23:59;13.20;99.90
7117;DHT22;3600;48.568;7.870;2022-09-17T10:26:31;13.30;99.90
7117;DHT22;3600;48.568;7.870;2022-09-17T10:29:01;13.10;99.90
7117;DHT22;3600;48.568;7.870;2022-09-17T10:31:48;13.30;99.90
7117;DHT22;3600;48.568;7.870;2022-09-17T10:34:27;13.40;99.90
7117;DHT22;3600;48.568;7.870;2022-09-17T10:36:57;13.40;99.90
7117;DHT22;3600;48.568;7.870;2022-09-17T10:39:31;13.60;99.90
7117;DHT22;3600;48.568;7.870;2022-09-17T10:44:36;13.60;99.90
7117;DHT22;3600;48.568;7.870;2022-09-17T10:47:12;13.60;99.90
7117;DHT22;3600;48.568;7.870;2022-09-17T10:49:47;13.60;99.90
7117;DHT22;3600;48.568;7.870;2022-09-17T10:52:33;13.70;99.90
7117;DHT22;3600;48.568;7.870;2022-09-17T10:55:32;13.60;99.90
7117;DHT22;3600;48.568;7.870;2022-09-17T11:11:41;14.00;99.90
7117;DHT22;3600;48.568;7.870;2022-09-17T11:14:46;14.30;99.90
7117;DHT22;3600;48.568;7.870;2022-09-17T11:20:26;14.50;99.90
7117;DHT22;3600;48.568;7.870;2022-09-17T11:23:17;14.40;99.90
7117;DHT22;3600;48.568;7.870;2022-09-17T11:25:54;14.50;99.90
7117;DHT22;3600;48.568;7.870;2022-09-17T11:36:56;14.70;99.90
7117;DHT22;3600;48.568;7.870;2022-09-17T11:39:32;14.80;99.90
7117;DHT22;3600;48.568;7.870;2022-09-17T11:42:02;14.70;99.90
7117;DHT22;3600;48.568;7.870;2022-09-17T11:44:37;14.70;99.90
7117;DHT22;3600;48.568;7.870;2022-09-17T11:47:18;14.60;99.90
7117;DHT22;3600;48.568;7.870;2022-09-17T11:49:50;14.60;99.90
7117;DHT22;3600;48.568;7.870;2022-09-17T11:52:39;14.70;99.90
7117;DHT22;3600;48.568;7.870;2022-09-17T11:55:21;14.70;99.90
7117;DHT22;3600;48.568;7.870;2022-09-17T11:57:53;14.70;99.90
7117;DHT22;3600;48.568;7.870;2022-09-17T12:00:23;14.70;99.90
7117;DHT22;3600;48.568;7.870;2022-09-17T12:03:08;14.70;99.90
7117;DHT22;3600;48.568;7.870;2022-09-17T12:05:56;14.60;99.90
7117;DHT22;3600;48.568;7.870;2022-09-17T12:12:04;14.60;99.90
7117;DHT22;3600;48.568;7.870;2022-09-17T12:14:17;14.40;99.90
7117;DHT22;3600;48.568;7.870;2022-09-17T12:16:49;14.40;99.90
7117;DHT22;3600;48.568;7.870;2022-09-17T12:19:35;14.40;99.90
7117;DHT22;3600;48.568;7.870;2022-09-17T12:22:11;14.30;99.90
7117;DHT22;3600;48.568;7.870;2022-09-17T12:24:41;14.30;99.90
7117;DHT22;3600;48.568;7.870;2022-09-17T12:27:34;14.20;99.90
7117;DHT22;3600;48.568;7.870;2022-09-17T12:35:59;14.40;99.90
7117;DHT22;3600;48.568;7.870;2022-09-17T12:41:19;14.50;99.90
7117;DHT22;3600;48.568;7.870;2022-09-17T12:50:05;14.70;99.90
7117;DHT22;3600;48.568;7.870;2022-09-17T12:55:19;14.70;99.90
7117;DHT22;3600;48.568;7.870;2022-09-17T13:00:41;14.80;99.90
7117;DHT22;3600;48.568;7.870;2022-09-17T13:03:29;14.80;99.90
7117;DHT22;3600;48.568;7.870;2022-09-17T13:06:08;15.00;99.90
7117;DHT22;3600;48.568;7.870;2022-09-17T13:09:13;15.30;99.90
7117;DHT22;3600;48.568;7.870;2022-09-17T13:12:26;15.50;99.90
7117;DHT22;3600;48.568;7.870;2022-09-17T13:18:33;15.80;99.90
7117;DHT22;3600;48.568;7.870;2022-09-17T13:21:07;15.90;99.90
7117;DHT22;3600;48.568;7.870;2022-09-17T13:23:44;16.20;99.90
7117;DHT22;3600;48.568;7.870;2022-09-17T13:26:13;16.40;99.90
7117;DHT22;3600;48.568;7.870;2022-09-17T13:28:47;16.50;99.90
7117;DHT22;3600;48.568;7.870;2022-09-17T13:31:44;16.70;99.90
7117;DHT22;3600;48.568;7.870;2022-09-17T13:34:30;16.80;99.90
7117;DHT22;3600;48.568;7.870;2022-09-17T13:36:59;16.60;99.90
7117;DHT22;3600;48.568;7.870;2022-09-17T13:39:45;16.60;99.90
7117;DHT22;3600;48.568;7.870;2022-09-17T13:42:48;16.70;99.90
7117;DHT22;3600;48.568;7.870;2022-09-17T13:45:16;16.70;99.90
7117;DHT22;3600;48.568;7.870;2022-09-17T13:48:09;16.40;99.90
7117;DHT22;3600;48.568;7.870;2022-09-17T13:50:45;16.60;99.90
7117;DHT22;3600;48.568;7.870;2022-09-17T13:55:50;16.70;99.90
7117;DHT22;3600;48.568;7.870;2022-09-17T14:01:09;16.40;99.90
7117;DHT22;3600;48.568;7.870;2022-09-17T14:30:22;16.60;99.90
7117;DHT22;3600;48.568;7.870;2022-09-17T14:35:48;16.30;99.90
7117;DHT22;3600;48.568;7.870;2022-09-17T14:38:26;16.40;99.90
7117;DHT22;3600;48.568;7.870;2022-09-17T14:41:00;16.60;99.90
7117;DHT22;3600;48.568;7.870;2022-09-17T14:46:24;16.80;99.90
7117;DHT22;3600;48.568;7.870;2022-09-17T14:48:53;16.60;99.90
7117;DHT22;3600;48.568;7.870;2022-09-17T14:56:33;16.20;99.90
7117;DHT22;3600;48.568;7.870;2022-09-17T14:59:00;16.30;99.90
7117;DHT22;3600;48.568;7.870;2022-09-17T15:01:29;16.10;99.90
7117;DHT22;3600;48.568;7.870;2022-09-17T15:06:42;16.30;99.90
7117;DHT22;3600;48.568;7.870;2022-09-17T15:09:16;16.40;99.90
7117;DHT22;3600;48.568;7.870;2022-09-17T15:11:44;16.40;99.90
7117;DHT22;3600;48.568;7.870;2022-09-17T15:14:22;16.30;99.90
7117;DHT22;3600;48.568;7.870;2022-09-17T15:16:54;16.20;99.90
7117;DHT22;3600;48.568;7.870;2022-09-17T15:19:46;16.10;99.90
7117;DHT22;3600;48.568;7.870;2022-09-17T15:22:18;16.10;99.90
7117;DHT22;3600;48.568;7.870;2022-09-17T15:24:48;15.90;99.90
7117;DHT22;3600;48.568;7.870;2022-09-17T15:27:21;15.70;99.90
7117;DHT22;3600;48.568;7.870;2022-09-17T15:29:52;15.70;99.90
7117;DHT22;3600;48.568;7.870;2022-09-17T15:32:20;15.60;99.90
7117;DHT22;3600;48.568;7.870;2022-09-17T15:37:46;15.50;99.90
7117;DHT22;3600;48.568;7.870;2022-09-17T15:40:36;15.20;99.90
7117;DHT22;3600;48.568;7.870;2022-09-17T15:43:15;15.00;99.90
7117;DHT22;3600;48.568;7.870;2022-09-17T15:45:42;14.80;99.90
7117;DHT22;3600;48.568;7.870;2022-09-17T15:51:00;14.60;99.90
7117;DHT22;3600;48.568;7.870;2022-09-17T15:53:28;14.60;99.90
7117;DHT22;3600;48.568;7.870;2022-09-17T15:56:07;14.60;99.90
7117;DHT22;3600;48.568;7.870;2022-09-17T15:58:59;14.50;99.90
7117;DHT22;3600;48.568;7.870;2022-09-17T16:04:26;14.40;99.90
7117;DHT22;3600;48.568;7.870;2022-09-17T16:06:58;14.40;99.90
7117;DHT22;3600;48.568;7.870;2022-09-17T16:09:49;14.50;99.90
7117;DHT22;3600;48.568;7.870;2022-09-17T16:12:21;14.40;99.90
7117;DHT22;3600;48.568;7.870;2022-09-17T16:14:53;14.40;99.90
7117;DHT22;3600;48.568;7.870;2022-09-17T16:20:19;14.30;99.90
7117;DHT22;3600;48.568;7.870;2022-09-17T16:22:50;13.90;99.90
7117;DHT22;3600;48.568;7.870;2022-09-17T16:25:26;13.60;99.90
7117;DHT22;3600;48.568;7.870;2022-09-17T16:28:00;13.50;99.90
7117;DHT22;3600;48.568;7.870;2022-09-17T16:30:27;13.30;99.90
7117;DHT22;3600;48.568;7.870;2022-09-17T16:32:54;13.40;99.90
7117;DHT22;3600;48.568;7.870;2022-09-17T16:35:23;13.40;99.90
7117;DHT22;3600;48.568;7.870;2022-09-17T16:37:53;13.40;99.90
7117;DHT22;3600;48.568;7.870;2022-09-17T16:40:23;13.40;99.90
7117;DHT22;3600;48.568;7.870;2022-09-17T16:42:50;13.40;99.90
7117;DHT22;3600;48.568;7.870;2022-09-17T16:45:17;13.30;99.90
7117;DHT22;3600;48.568;7.870;2022-09-17T16:47:44;13.40;99.90
7117;DHT22;3600;48.568;7.870;2022-09-17T16:50:13;13.30;99.90
7117;DHT22;3600;48.568;7.870;2022-09-17T16:52:40;13.30;99.90
7117;DHT22;3600;48.568;7.870;2022-09-17T16:55:07;13.30;99.90
7117;DHT22;3600;48.568;7.870;2022-09-17T16:57:34;13.30;99.90
7117;DHT22;3600;48.568;7.870;2022-09-17T17:00:01;13.30;99.90
7117;DHT22;3600;48.568;7.870;2022-09-17T17:02:29;13.30;99.90
7117;DHT22;3600;48.568;7.870;2022-09-17T17:04:56;13.30;99.90
7117;DHT22;3600;48.568;7.870;2022-09-17T17:07:23;13.20;99.90
7117;DHT22;3600;48.568;7.870;2022-09-17T17:09:50;13.30;99.90
7117;DHT22;3600;48.568;7.870;2022-09-17T17:12:17;13.20;99.90
7117;DHT22;3600;48.568;7.870;2022-09-17T17:14:44;13.20;99.90
7117;DHT22;3600;48.568;7.870;2022-09-17T17:17:17;13.10;99.90
7117;DHT22;3600;48.568;7.870;2022-09-17T17:19:44;13.10;99.90
7117;DHT22;3600;48.568;7.870;2022-09-17T17:22:14;13.00;99.90
7117;DHT22;3600;48.568;7.870;2022-09-17T17:24:41;13.00;99.90
7117;DHT22;3600;48.568;7.870;2022-09-17T17:27:08;13.10;99.90
7117;DHT22;3600;48.568;7.870;2022-09-17T17:29:35;13.20;99.90
7117;DHT22;3600;48.568;7.870;2022-09-17T17:32:03;13.10;99.90
7117;DHT22;3600;48.568;7.870;2022-09-17T17:34:30;13.00;99.90
7117;DHT22;3600;48.568;7.870;2022-09-17T17:36:57;13.00;99.90
7117;DHT22;3600;48.568;7.870;2022-09-17T17:39:24;13.10;99.90
7117;DHT22;3600;48.568;7.870;2022-09-17T17:41:53;13.00;99.90
7117;DHT22;3600;48.568;7.870;2022-09-17T17:44:21;13.10;99.90
7117;DHT22;3600;48.568;7.870;2022-09-17T17:46:47;13.10;99.90
7117;DHT22;3600;48.568;7.870;2022-09-17T17:49:14;13.00;99.90
7117;DHT22;3600;48.568;7.870;2022-09-17T17:51:41;13.00;99.90
7117;DHT22;3600;48.568;7.870;2022-09-17T17:54:08;12.90;99.90
7117;DHT22;3600;48.568;7.870;2022-09-17T17:56:35;12.90;99.90
7117;DHT22;3600;48.568;7.870;2022-09-17T17:59:02;12.80;99.90
7117;DHT22;3600;48.568;7.870;2022-09-17T18:01:30;12.80;99.90
7117;DHT22;3600;48.568;7.870;2022-09-17T18:04:02;12.80;99.90
7117;DHT22;3600;48.568;7.870;2022-09-17T18:06:30;12.90;99.90
7117;DHT22;3600;48.568;7.870;2022-09-17T18:08:57;12.90;99.90
7117;DHT22;3600;48.568;7.870;2022-09-17T18:11:24;12.80;99.90
7117;DHT22;3600;48.568;7.870;2022-09-17T18:13:52;12.80;99.90
7117;DHT22;3600;48.568;7.870;2022-09-17T18:16:20;12.80;99.90
7117;DHT22;3600;48.568;7.870;2022-09-17T18:18:47;12.80;99.90
7117;DHT22;3600;48.568;7.870;2022-09-17T18:21:20;12.80;99.90
7117;DHT22;3600;48.568;7.870;2022-09-17T18:23:48;12.70;99.90
7117;DHT22;3600;48.568;7.870;2022-09-17T18:26:19;12.60;99.90
7117;DHT22;3600;48.568;7.870;2022-09-17T18:28:47;12.60;99.90
7117;DHT22;3600;48.568;7.870;2022-09-17T18:31:24;12.70;99.90
7117;DHT22;3600;48.568;7.870;2022-09-17T18:34:01;12.60;99.90
7117;DHT22;3600;48.568;7.870;2022-09-17T18:36:30;12.70;99.90
7117;DHT22;3600;48.568;7.870;2022-09-17T18:38:59;12.70;99.90
7117;DHT22;3600;48.568;7.870;2022-09-17T18:41:50;12.60;99.90
7117;DHT22;3600;48.568;7.870;2022-09-17T18:44:17;12.60;99.90
7117;DHT22;3600;48.568;7.870;2022-09-17T18:46:48;12.70;99.90
7117;DHT22;3600;48.568;7.870;2022-09-17T18:49:16;12.60;99.90
7117;DHT22;3600;48.568;7.870;2022-09-17T18:51:43;12.60;99.90
7117;DHT22;3600;48.568;7.870;2022-09-17T18:54:10;12.60;99.90
7117;DHT22;3600;48.568;7.870;2022-09-17T18:56:38;12.60;99.90
7117;DHT22;3600;48.568;7.870;2022-09-17T18:59:07;12.60;99.90
7117;DHT22;3600;48.568;7.870;2022-09-17T19:01:34;12.60;99.90
7117;DHT22;3600;48.568;7.870;2022-09-17T19:04:01;12.50;99.90
7117;DHT22;3600;48.568;7.870;2022-09-17T19:06:29;12.60;99.90
7117;DHT22;3600;48.568;7.870;2022-09-17T19:09:01;12.50;99.90
7117;DHT22;3600;48.568;7.870;2022-09-17T19:11:28;12.60;99.90
7117;DHT22;3600;48.568;7.870;2022-09-17T19:13:55;12.50;99.90
7117;DHT22;3600;48.568;7.870;2022-09-17T19:16:22;12.50;99.90
7117;DHT22;3600;48.568;7.870;2022-09-17T19:18:49;12.50;99.90
7117;DHT22;3600;48.568;7.870;2022-09-17T19:21:18;12.50;99.90
7117;DHT22;3600;48.568;7.870;2022-09-17T19:23:48;12.50;99.90